createdAt,value
2018-04-18T00:00:15.634Z,96.70
2018-04-18T00:02:42.183Z,96.30
2018-04-18T00:05:08.678Z,96.40
2018-04-18T00:07:35.190Z,96.30
2018-04-18T00:10:01.710Z,96.40
2018-04-18T00:12:28.285Z,96.60
2018-04-18T00:14:54.808Z,96.70
2018-04-18T00:17:21.350Z,96.60
2018-04-18T00:19:47.930Z,96.60
2018-04-18T00:22:14.505Z,96.90
2018-04-18T00:24:41.090Z,96.80
2018-04-18T00:27:07.663Z,97.00
2018-04-18T00:29:34.236Z,97.10
2018-04-18T00:32:00.771Z,97.20
2018-04-18T00:34:27.287Z,97.20
2018-04-18T00:36:53.829Z,97.20
2018-04-18T00:39:20.327Z,96.90
2018-04-18T00:41:46.852Z,96.90
2018-04-18T00:44:13.427Z,97.50
2018-04-18T00:46:39.990Z,97.30
2018-04-18T00:49:07.525Z,97.70
2018-04-18T00:51:34.055Z,97.60
2018-04-18T00:54:01.307Z,97.60
2018-04-18T00:56:27.824Z,97.80
2018-04-18T00:58:54.333Z,97.80
2018-04-18T01:01:20.858Z,98.40
2018-04-18T01:03:48.166Z,98.00
2018-04-18T01:06:14.695Z,98.10
2018-04-18T01:08:41.276Z,97.80
2018-04-18T01:11:07.786Z,97.80
2018-04-18T01:13:34.306Z,98.20
2018-04-18T01:16:00.812Z,98.10
2018-04-18T01:18:27.346Z,98.30
2018-04-18T01:20:53.872Z,98.50
2018-04-18T01:23:20.397Z,98.20
2018-04-18T01:25:47.670Z,98.40
2018-04-18T01:28:14.191Z,98.30
2018-04-18T01:30:40.744Z,98.50
2018-04-18T01:33:07.297Z,98.40
2018-04-18T01:35:33.866Z,98.20
2018-04-18T01:38:00.394Z,98.40
2018-04-18T01:40:27.666Z,98.30
2018-04-18T01:42:55.008Z,98.30
2018-04-18T01:45:21.592Z,98.20
2018-04-18T01:47:48.110Z,98.20
2018-04-18T01:50:14.638Z,98.20
2018-04-18T01:52:41.213Z,98.40
2018-04-18T01:55:07.740Z,98.30
2018-04-18T01:57:34.314Z,98.40
2018-04-18T02:00:00.813Z,98.60
2018-04-18T02:02:27.364Z,98.40
2018-04-18T02:04:53.910Z,98.40
2018-04-18T02:07:20.418Z,98.60
2018-04-18T02:09:46.932Z,98.60
2018-04-18T02:12:14.234Z,99.00
2018-04-18T02:14:40.733Z,99.00
2018-04-18T02:17:07.232Z,98.70
2018-04-18T02:19:33.740Z,99.10
2018-04-18T02:22:00.268Z,98.70
2018-04-18T02:24:26.796Z,98.70
2018-04-18T02:26:53.342Z,98.90
2018-04-18T02:29:19.921Z,99.00
2018-04-18T02:31:46.487Z,98.80
2018-04-18T02:34:13.056Z,98.80
2018-04-18T02:36:39.664Z,98.80
2018-04-18T02:39:06.202Z,98.50
2018-04-18T02:41:32.766Z,98.70
2018-04-18T02:43:59.295Z,98.90
2018-04-18T02:46:25.859Z,99.00
2018-04-18T02:48:52.423Z,98.80
2018-04-18T02:51:19.750Z,99.00
2018-04-18T02:53:46.300Z,99.00
2018-04-18T02:56:12.821Z,98.80
2018-04-18T02:58:39.370Z,98.80
2018-04-18T03:01:05.936Z,99.30
2018-04-18T03:03:32.509Z,99.20
2018-04-18T03:05:59.010Z,99.50
2018-04-18T03:08:25.605Z,99.40
2018-04-18T03:10:52.136Z,99.30
2018-04-18T03:13:18.671Z,99.30
2018-04-18T03:15:45.213Z,99.30
2018-04-18T03:18:11.745Z,99.40
2018-04-18T03:20:38.348Z,99.30
2018-04-18T03:23:05.629Z,99.10
2018-04-18T03:25:32.147Z,98.90
2018-04-18T03:27:58.705Z,99.20
2018-04-18T03:30:25.252Z,99.10
2018-04-18T03:32:51.786Z,99.10
2018-04-18T03:35:18.321Z,99.10
2018-04-18T03:37:44.859Z,99.00
2018-04-18T03:40:11.358Z,99.00
2018-04-18T03:42:37.893Z,99.10
2018-04-18T03:45:04.386Z,99.20
2018-04-18T03:47:31.741Z,99.20
2018-04-18T03:49:58.288Z,99.10
2018-04-18T03:52:24.904Z,99.30
2018-04-18T03:54:52.222Z,99.10
2018-04-18T03:57:18.753Z,99.00
2018-04-18T03:59:45.280Z,99.00
2018-04-18T04:02:11.900Z,99.20
2018-04-18T04:04:38.414Z,99.10
2018-04-18T04:07:04.921Z,99.10
2018-04-18T04:09:32.222Z,99.10
2018-04-18T04:11:59.525Z,99.10
2018-04-18T04:14:26.140Z,99.00
2018-04-18T04:17:04.832Z,99.00
2018-04-18T04:19:43.397Z,99.10
2018-04-18T04:22:22.680Z,99.20
2018-04-18T04:24:49.282Z,99.20
2018-04-18T04:27:15.849Z,99.10
2018-04-18T04:29:43.280Z,99.30
2018-04-18T04:32:09.850Z,99.60
2018-04-18T04:34:36.423Z,99.80
2018-04-18T04:37:02.981Z,99.70
2018-04-18T04:39:30.324Z,99.90
2018-04-18T04:41:56.907Z,99.60
2018-04-18T04:44:24.213Z,99.60
2018-04-18T04:46:50.744Z,99.50
2018-04-18T04:49:17.320Z,99.60
2018-04-18T04:51:44.612Z,99.90
2018-04-18T04:54:11.162Z,99.90
2018-04-18T04:56:37.693Z,99.90
2018-04-18T04:59:04.250Z,99.90
2018-04-18T05:01:30.749Z,99.90
2018-04-18T05:03:57.303Z,99.90
2018-04-18T05:06:23.861Z,99.90
2018-04-18T05:08:50.418Z,99.90
2018-04-18T05:11:16.956Z,99.90
2018-04-18T05:13:43.651Z,99.90
2018-04-18T05:16:10.188Z,99.90
2018-04-18T05:18:36.712Z,99.90
2018-04-18T05:21:06.921Z,99.90
2018-04-18T05:23:33.541Z,99.90
2018-04-18T05:26:00.144Z,99.90
2018-04-18T05:28:26.666Z,99.90
2018-04-18T05:30:54.022Z,99.50
2018-04-18T05:33:20.516Z,99.50
2018-04-18T05:35:47.070Z,99.20
2018-04-18T05:38:13.636Z,98.90
2018-04-18T05:40:40.159Z,98.70
2018-04-18T05:43:06.759Z,98.60
2018-04-18T05:45:33.336Z,97.70
2018-04-18T05:47:59.891Z,97.20
2018-04-18T05:50:26.429Z,96.80
2018-04-18T05:52:52.984Z,96.20
2018-04-18T05:55:19.623Z,96.20
2018-04-18T05:57:46.248Z,95.60
2018-04-18T06:00:12.902Z,95.70
2018-04-18T06:02:40.234Z,94.70
2018-04-18T06:05:06.919Z,94.60
2018-04-18T06:07:33.500Z,94.60
2018-04-18T06:10:00.195Z,93.90
2018-04-18T06:12:26.694Z,93.40
2018-04-18T06:14:53.234Z,93.20
2018-04-18T06:17:19.769Z,92.50
2018-04-18T06:19:46.426Z,92.20
2018-04-18T06:22:13.722Z,92.60
2018-04-18T06:24:40.286Z,92.60
2018-04-18T06:27:06.838Z,91.30
2018-04-18T06:29:33.435Z,92.20
2018-04-18T06:32:00.017Z,91.60
2018-04-18T06:34:26.637Z,91.20
2018-04-18T06:36:53.346Z,90.60
2018-04-18T06:39:19.977Z,90.80
2018-04-18T06:41:46.517Z,90.40
2018-04-18T06:44:13.036Z,90.00
2018-04-18T06:46:39.578Z,90.20
2018-04-18T06:49:06.115Z,90.00
2018-04-18T06:51:32.681Z,89.70
2018-04-18T06:53:59.289Z,90.40
2018-04-18T06:56:25.816Z,90.00
2018-04-18T06:58:52.401Z,88.60
2018-04-18T07:01:18.989Z,88.50
2018-04-18T07:03:45.577Z,87.90
2018-04-18T07:06:12.305Z,88.00
2018-04-18T07:08:38.864Z,89.60
2018-04-18T07:11:05.479Z,87.10
2018-04-18T07:13:32.044Z,85.20
2018-04-18T07:15:58.582Z,86.20
2018-04-18T07:18:25.102Z,86.30
2018-04-18T07:20:51.664Z,84.30
2018-04-18T07:23:18.201Z,84.70
2018-04-18T07:25:45.468Z,80.80
2018-04-18T07:28:12.737Z,82.00
2018-04-18T07:30:39.315Z,82.00
2018-04-18T07:33:05.845Z,80.60
2018-04-18T07:35:32.469Z,76.60
2018-04-18T07:37:59.002Z,75.20
2018-04-18T07:40:26.289Z,70.70
2018-04-18T07:42:52.818Z,70.60
2018-04-18T07:45:19.393Z,70.20
2018-04-18T07:47:45.998Z,67.70
2018-04-18T07:50:12.548Z,65.50
2018-04-18T07:52:39.826Z,58.30
2018-04-18T07:55:06.357Z,58.30
2018-04-18T07:57:32.929Z,56.40
2018-04-18T08:00:00.201Z,53.10
2018-04-18T08:02:26.775Z,53.10
2018-04-18T08:04:54.141Z,45.80
2018-04-18T08:07:20.724Z,45.60
2018-04-18T08:09:47.283Z,45.90
2018-04-18T08:12:13.825Z,48.20
2018-04-18T08:14:40.353Z,49.70
2018-04-18T08:17:06.870Z,51.40
2018-04-18T08:19:33.397Z,50.80
2018-04-18T08:22:00.034Z,51.60
2018-04-18T08:24:26.573Z,48.70
2018-04-18T08:26:53.092Z,45.10
2018-04-18T08:29:19.617Z,46.70
2018-04-18T08:31:46.228Z,43.30
2018-04-18T08:34:13.514Z,48.00
2018-04-18T08:36:40.181Z,47.90
2018-04-18T08:39:06.746Z,44.60
2018-04-18T08:41:34.108Z,39.20
2018-04-18T08:44:01.407Z,37.60
2018-04-18T08:46:27.951Z,36.90
2018-04-18T08:48:54.578Z,39.40
2018-04-18T08:51:21.062Z,40.90
2018-04-18T08:53:48.319Z,37.40
2018-04-18T08:56:14.843Z,36.50
2018-04-18T08:58:41.411Z,36.60
2018-04-18T09:01:07.913Z,37.30
2018-04-18T09:03:34.481Z,36.10
2018-04-18T09:06:01.007Z,36.50
2018-04-18T09:08:28.264Z,37.60
2018-04-18T09:10:55.544Z,35.50
2018-04-18T09:13:22.088Z,34.80
2018-04-18T09:15:48.649Z,33.60
2018-04-18T09:18:15.189Z,33.70
2018-04-18T09:20:41.828Z,36.10
2018-04-18T09:23:08.355Z,35.60
2018-04-18T09:25:34.918Z,40.30
2018-04-18T09:28:02.221Z,34.30
2018-04-18T09:30:28.746Z,34.10
2018-04-18T09:32:55.250Z,32.40
2018-04-18T09:35:22.519Z,31.30
2018-04-18T09:37:49.077Z,31.00
2018-04-18T09:40:15.695Z,29.40
2018-04-18T09:42:42.357Z,34.60
2018-04-18T09:45:08.858Z,31.20
2018-04-18T09:47:35.390Z,30.10
2018-04-18T09:50:02.870Z,28.40
2018-04-18T09:52:29.393Z,28.20
2018-04-18T09:54:55.932Z,28.40
2018-04-18T09:57:22.497Z,27.80
2018-04-18T09:59:49.014Z,27.30
2018-04-18T10:02:17.404Z,29.30
2018-04-18T10:04:43.984Z,33.60
2018-04-18T10:07:10.642Z,29.20
2018-04-18T10:09:38.033Z,27.50
2018-04-18T10:12:04.594Z,27.40
2018-04-18T10:14:31.148Z,26.70
2018-04-18T10:16:57.661Z,27.20
2018-04-18T10:19:24.216Z,27.40
2018-04-18T10:21:50.866Z,27.90
2018-04-18T10:24:17.392Z,26.90
2018-04-18T10:26:43.891Z,27.00
2018-04-18T10:29:10.417Z,26.70
2018-04-18T10:31:36.959Z,26.00
2018-04-18T10:34:03.482Z,25.70
2018-04-18T10:36:30.134Z,25.90
2018-04-18T10:38:56.705Z,26.00
2018-04-18T10:41:23.250Z,25.90
2018-04-18T10:43:49.772Z,25.60
2018-04-18T10:46:16.348Z,25.30
2018-04-18T10:48:42.863Z,25.00
2018-04-18T10:51:09.373Z,24.90
2018-04-18T10:53:35.869Z,22.70
2018-04-18T10:56:02.394Z,25.20
2018-04-18T10:58:28.936Z,25.30
2018-04-18T11:00:56.194Z,25.20
2018-04-18T11:03:22.764Z,25.10
2018-04-18T11:05:49.310Z,23.90
2018-04-18T11:08:15.824Z,24.40
2018-04-18T11:10:42.349Z,24.00
2018-04-18T11:13:08.870Z,26.60
2018-04-18T11:15:35.418Z,23.80
2018-04-18T11:18:01.968Z,25.10
2018-04-18T11:20:28.502Z,27.70
2018-04-18T11:22:55.034Z,26.20
2018-04-18T11:25:21.658Z,24.80
2018-04-18T11:27:48.178Z,23.30
2018-04-18T11:30:14.717Z,23.90
2018-04-18T11:32:41.236Z,24.90
2018-04-18T11:35:07.813Z,24.50
2018-04-18T11:37:34.423Z,25.00
2018-04-18T11:40:01.686Z,22.30
2018-04-18T11:42:29.205Z,22.00
2018-04-18T11:44:55.713Z,21.50
2018-04-18T11:47:22.211Z,21.40
2018-04-18T11:49:48.786Z,21.70
2018-04-18T11:52:16.047Z,20.80
2018-04-18T11:54:44.245Z,21.00
2018-04-18T11:57:10.779Z,21.00
2018-04-18T11:59:37.281Z,21.10
2018-04-18T12:02:04.638Z,19.80
2018-04-18T12:04:31.159Z,19.50
2018-04-18T12:06:57.676Z,21.40
2018-04-18T12:09:24.225Z,22.80
2018-04-18T12:11:50.765Z,22.20
2018-04-18T12:14:17.293Z,22.90
2018-04-18T12:16:43.891Z,22.50
2018-04-18T12:19:10.430Z,22.50
2018-04-18T12:21:36.980Z,19.70
2018-04-18T12:24:04.316Z,20.50
2018-04-18T12:26:30.852Z,20.30
2018-04-18T12:28:57.379Z,21.40
2018-04-18T12:31:23.918Z,20.00
2018-04-18T12:33:50.455Z,20.70
2018-04-18T12:36:16.979Z,20.70
2018-04-18T12:38:43.526Z,21.20
2018-04-18T12:41:10.070Z,21.00
2018-04-18T12:43:36.613Z,20.10
2018-04-18T12:46:03.283Z,19.90
2018-04-18T12:48:29.809Z,21.30
2018-04-18T12:50:57.267Z,21.30
2018-04-18T12:53:23.837Z,21.50
2018-04-18T12:55:50.344Z,23.60
2018-04-18T12:58:16.886Z,22.40
2018-04-18T13:00:43.490Z,23.80
2018-04-18T13:03:10.757Z,21.70
2018-04-18T13:05:37.295Z,21.50
2018-04-18T13:08:03.852Z,21.60
2018-04-18T13:10:30.368Z,22.80
2018-04-18T13:12:56.931Z,21.70
2018-04-18T13:15:23.476Z,22.00
2018-04-18T13:17:50.061Z,22.50
2018-04-18T13:20:17.317Z,22.90
2018-04-18T13:22:43.845Z,22.80
2018-04-18T13:25:10.369Z,22.40
2018-04-18T13:27:36.880Z,22.30
2018-04-18T13:30:03.412Z,22.20
2018-04-18T13:32:30.017Z,21.70
2018-04-18T13:34:56.550Z,23.00
2018-04-18T13:37:23.217Z,23.60
2018-04-18T13:39:49.840Z,23.20
2018-04-18T13:42:16.432Z,24.70
2018-04-18T13:44:43.008Z,26.60
2018-04-18T13:47:09.539Z,24.10
2018-04-18T13:49:36.074Z,22.50
2018-04-18T13:52:02.609Z,23.40
2018-04-18T13:54:29.148Z,23.70
2018-04-18T13:56:55.669Z,24.30
2018-04-18T13:59:22.981Z,23.60
2018-04-18T14:01:49.514Z,23.50
2018-04-18T14:04:16.080Z,24.40
2018-04-18T14:06:42.581Z,23.60
2018-04-18T14:09:09.124Z,23.50
2018-04-18T14:11:35.621Z,26.60
2018-04-18T14:14:02.158Z,29.20
2018-04-18T14:16:28.691Z,28.50
2018-04-18T14:18:55.218Z,31.80
2018-04-18T14:21:21.803Z,30.60
2018-04-18T14:23:48.335Z,31.40
2018-04-18T14:26:14.867Z,32.00
2018-04-18T14:28:41.403Z,31.10
2018-04-18T14:31:07.945Z,30.90
2018-04-18T14:33:34.481Z,31.20
2018-04-18T14:36:01.013Z,32.00
2018-04-18T14:38:27.562Z,32.10
2018-04-18T14:40:54.142Z,32.80
2018-04-18T14:43:20.681Z,31.90
2018-04-18T14:45:47.341Z,32.40
2018-04-18T14:48:13.941Z,33.20
2018-04-18T14:50:41.232Z,32.20
2018-04-18T14:53:07.745Z,31.90
2018-04-18T14:55:34.309Z,32.20
2018-04-18T14:58:00.883Z,32.20
2018-04-18T15:00:27.409Z,33.50
2018-04-18T15:02:54.005Z,32.70
2018-04-18T15:05:20.515Z,32.30
2018-04-18T15:07:47.023Z,32.70
2018-04-18T15:10:13.526Z,31.80
2018-04-18T15:12:40.041Z,31.80
2018-04-18T15:15:06.544Z,31.80
2018-04-18T15:17:33.080Z,31.60
2018-04-18T15:19:59.622Z,33.50
2018-04-18T15:22:26.179Z,33.90
2018-04-18T15:24:52.748Z,34.00
2018-04-18T15:27:19.317Z,33.90
2018-04-18T15:29:45.850Z,32.20
2018-04-18T15:32:12.411Z,32.60
2018-04-18T15:34:38.974Z,34.30
2018-04-18T15:37:05.485Z,33.20
2018-04-18T15:39:32.020Z,33.00
2018-04-18T15:41:59.340Z,35.30
2018-04-18T15:44:25.900Z,35.40
2018-04-18T15:46:53.148Z,35.00
2018-04-18T15:49:20.420Z,35.10
2018-04-18T15:51:47.682Z,34.50
2018-04-18T15:54:14.224Z,35.00
2018-04-18T15:56:40.820Z,36.10
2018-04-18T15:59:07.341Z,35.60
2018-04-18T16:01:33.875Z,35.10
2018-04-18T16:04:00.389Z,35.30
2018-04-18T16:06:26.910Z,34.60
2018-04-18T16:08:53.432Z,34.90
2018-04-18T16:11:19.949Z,34.60
2018-04-18T16:13:47.781Z,33.70
2018-04-18T16:16:15.088Z,34.00
2018-04-18T16:18:41.585Z,34.10
2018-04-18T16:21:08.101Z,34.60
2018-04-18T16:23:35.431Z,33.90
2018-04-18T16:26:02.637Z,35.70
2018-04-18T16:28:29.199Z,36.30
2018-04-18T16:30:55.725Z,35.10
2018-04-18T16:33:22.249Z,33.30
2018-04-18T16:35:48.821Z,33.90
2018-04-18T16:38:15.340Z,37.00
2018-04-18T16:40:41.925Z,36.90
2018-04-18T16:43:08.420Z,38.80
2018-04-18T16:45:34.929Z,41.30
2018-04-18T16:48:02.202Z,39.80
2018-04-18T16:50:28.775Z,40.10
2018-04-18T16:52:55.284Z,38.50
2018-04-18T16:55:21.882Z,43.00
2018-04-18T16:57:48.408Z,44.20
2018-04-18T17:00:15.676Z,44.70
2018-04-18T17:02:42.938Z,40.10
2018-04-18T17:05:09.485Z,40.20
2018-04-18T17:07:36.036Z,40.00
2018-04-18T17:10:02.595Z,40.80
2018-04-18T17:12:29.177Z,40.00
2018-04-18T17:14:55.741Z,39.10
2018-04-18T17:17:22.292Z,40.20
2018-04-18T17:19:48.835Z,39.70
2018-04-18T17:22:15.355Z,40.10
2018-04-18T17:24:41.897Z,47.50
2018-04-18T17:27:08.468Z,48.70
2018-04-18T17:29:35.011Z,48.80
2018-04-18T17:32:01.612Z,49.60
2018-04-18T17:34:28.265Z,49.50
2018-04-18T17:36:54.819Z,50.70
2018-04-18T17:39:21.447Z,51.00
2018-04-18T17:41:47.988Z,52.00
2018-04-18T17:44:14.616Z,52.90
2018-04-18T17:46:41.312Z,53.20
2018-04-18T17:49:08.616Z,55.70
2018-04-18T17:51:35.148Z,55.60
2018-04-18T17:54:02.452Z,56.50
2018-04-18T17:56:29.761Z,56.70
2018-04-18T17:58:56.306Z,56.60
2018-04-18T18:01:22.828Z,57.40
2018-04-18T18:03:49.409Z,58.30
2018-04-18T18:06:16.691Z,58.70
2018-04-18T18:08:43.246Z,59.00
2018-04-18T18:11:09.835Z,60.50
2018-04-18T18:13:37.096Z,62.50
2018-04-18T18:16:04.351Z,61.70
2018-04-18T18:18:30.873Z,61.70
2018-04-18T18:20:58.182Z,62.00
2018-04-18T18:23:24.705Z,61.90
2018-04-18T18:25:51.243Z,61.60
2018-04-18T18:28:17.752Z,65.40
2018-04-18T18:30:44.269Z,63.20
2018-04-18T18:33:11.616Z,64.10
2018-04-18T18:35:38.143Z,64.20
2018-04-18T18:38:04.702Z,64.70
2018-04-18T18:40:31.199Z,64.60
2018-04-18T18:42:57.725Z,65.20
2018-04-18T18:45:24.227Z,65.50
2018-04-18T18:47:50.917Z,65.80
2018-04-18T18:50:17.449Z,66.50
2018-04-18T18:52:43.996Z,68.10
2018-04-18T18:55:10.651Z,67.70
2018-04-18T18:57:38.300Z,70.10
2018-04-18T19:00:04.952Z,70.20
2018-04-18T19:02:32.325Z,71.10
2018-04-18T19:04:58.963Z,71.30
2018-04-18T19:07:25.687Z,72.80
2018-04-18T19:09:52.233Z,71.50
2018-04-18T19:12:19.505Z,72.60
2018-04-18T19:14:46.047Z,72.50
2018-04-18T19:17:12.624Z,72.80
2018-04-18T19:19:39.222Z,73.00
2018-04-18T19:22:05.768Z,75.20
2018-04-18T19:24:32.295Z,74.00
2018-04-18T19:26:58.848Z,74.20
2018-04-18T19:29:25.384Z,75.50
2018-04-18T19:31:51.956Z,75.90
2018-04-18T19:34:18.444Z,76.00
2018-04-18T19:36:45.175Z,77.20
2018-04-18T19:39:11.765Z,78.70
2018-04-18T19:41:39.352Z,78.00
2018-04-18T19:44:07.146Z,79.00
2018-04-18T19:46:33.720Z,80.20
2018-04-18T19:49:01.201Z,80.30
2018-04-18T19:51:27.722Z,79.60
2018-04-18T19:53:54.274Z,79.60
2018-04-18T19:56:20.876Z,79.40
2018-04-18T19:58:48.682Z,79.00
2018-04-18T20:01:16.574Z,79.30
2018-04-18T20:03:43.108Z,79.30
2018-04-18T20:06:09.650Z,80.00
2018-04-18T20:08:37.239Z,79.60
2018-04-18T20:11:04.523Z,79.00
2018-04-18T20:13:31.885Z,80.20
2018-04-18T20:15:58.447Z,80.20
2018-04-18T20:18:25.090Z,80.30
2018-04-18T20:20:51.708Z,80.70
2018-04-18T20:23:18.965Z,81.70
2018-04-18T20:25:45.490Z,81.60
2018-04-18T20:28:12.138Z,82.00
2018-04-18T20:30:38.680Z,82.20
2018-04-18T20:33:05.242Z,82.60
2018-04-18T20:35:31.782Z,82.80
2018-04-18T20:37:58.398Z,83.10
2018-04-18T20:40:24.987Z,82.10
2018-04-18T20:42:56.466Z,82.60
2018-04-18T20:45:23.835Z,83.50
2018-04-18T20:47:50.368Z,83.50
2018-04-18T20:50:16.913Z,83.70
2018-04-18T20:52:43.545Z,84.70
2018-04-18T20:55:10.119Z,85.00
2018-04-18T20:57:36.646Z,85.60
2018-04-18T21:00:03.248Z,85.90
2018-04-18T21:02:29.802Z,86.00
2018-04-18T21:04:56.316Z,86.40
2018-04-18T21:07:22.855Z,87.00
2018-04-18T21:09:49.512Z,86.70
2018-04-18T21:12:16.060Z,86.70
2018-04-18T21:14:42.601Z,86.50
2018-04-18T21:17:09.121Z,86.20
2018-04-18T21:19:35.681Z,85.30
2018-04-18T21:22:02.280Z,85.50
2018-04-18T21:24:28.816Z,85.40
2018-04-18T21:26:55.377Z,85.60
2018-04-18T21:29:21.969Z,86.20
2018-04-18T21:31:49.228Z,87.20
2018-04-18T21:34:15.853Z,87.10
2018-04-18T21:36:42.374Z,86.50
2018-04-18T21:39:09.023Z,87.30
2018-04-18T21:41:36.378Z,86.80
2018-04-18T21:44:02.999Z,87.20
2018-04-18T21:46:29.633Z,87.30
2018-04-18T21:48:56.272Z,87.60
2018-04-18T21:51:22.782Z,87.80
2018-04-18T21:53:49.293Z,88.00
2018-04-18T21:56:15.902Z,87.70
2018-04-18T21:58:42.444Z,87.60
2018-04-18T22:01:09.843Z,89.50
2018-04-18T22:03:36.422Z,89.00
2018-04-18T22:06:02.937Z,88.50
2018-04-18T22:08:29.536Z,88.50
2018-04-18T22:10:56.062Z,88.80
2018-04-18T22:13:22.610Z,89.10
2018-04-18T22:15:49.146Z,89.30
2018-04-18T22:18:15.654Z,89.60
2018-04-18T22:20:42.171Z,89.50
2018-04-18T22:23:08.697Z,90.10
2018-04-18T22:25:35.194Z,89.60
2018-04-18T22:28:01.734Z,89.60
2018-04-18T22:30:28.264Z,89.80
2018-04-18T22:32:54.787Z,90.50
2018-04-18T22:35:21.280Z,90.30
2018-04-18T22:37:47.792Z,90.30
2018-04-18T22:40:14.338Z,90.20
2018-04-18T22:42:40.871Z,90.40
2018-04-18T22:45:07.404Z,90.30
2018-04-18T22:47:33.947Z,90.30
2018-04-18T22:50:00.459Z,90.40
2018-04-18T22:52:27.180Z,90.60
2018-04-18T22:54:53.717Z,90.80
2018-04-18T22:57:20.255Z,90.90
2018-04-18T22:59:46.804Z,91.00
2018-04-18T23:02:13.342Z,91.20
2018-04-18T23:04:39.910Z,91.10
2018-04-18T23:07:06.441Z,91.40
2018-04-18T23:09:32.971Z,91.50
2018-04-18T23:11:59.503Z,91.30
2018-04-18T23:14:26.105Z,91.60
2018-04-18T23:16:52.665Z,91.60
2018-04-18T23:19:19.172Z,92.00
2018-04-18T23:21:45.705Z,92.40
2018-04-18T23:24:12.214Z,92.60
2018-04-18T23:26:38.733Z,92.70
2018-04-18T23:29:05.319Z,92.70
2018-04-18T23:31:31.874Z,92.80
2018-04-18T23:33:58.410Z,92.70
2018-04-18T23:36:24.924Z,92.80
2018-04-18T23:38:51.431Z,93.00
2018-04-18T23:41:17.963Z,93.00
2018-04-18T23:43:45.243Z,92.90
2018-04-18T23:46:11.728Z,92.80
2018-04-18T23:48:38.226Z,93.00
2018-04-18T23:51:04.764Z,93.00
2018-04-18T23:53:31.251Z,93.00
2018-04-18T23:55:57.790Z,93.10
2018-04-18T23:58:24.338Z,93.20
